Minneapolis (MSP/KMSP)

Information

Location
Minneapolis, MN
Local Time
00:33 / 12:33 am
GMT Time
06:33 / 6:33 am
Gates
Unassigned
No FAA reported delays
METAR KMSP 220553Z 00000KT 10SM BKN250 07/04 A2967 RMK AO2 SLP050 T00670044 10156 20067 401670000 58011
TAF KMSP 220540Z 2206/2312 00000KT P6SM SCT120 BKN250 FM220900 VRB03KT P6SM VCSH BKN100 FM221800 30007KT P6SM BKN100 FM230100 32010KT P6SM OVC020
  • No charts available